Texas General Land Office
 Texas General Land Office
 George P. Bush, Commissioner

 Oil Spill Prevention
 & Response

Texas Automated Buoy System
Real Time Ocean Observations
Supporting Oil Spill Prevention and
Response since 1995
Geochemical and Environmental Research Group

NOAA - NDBC Buoy 42020 -- Texas Automated Buoy System

NBDC Buoy 42020
Corpus Christi, TX
Conditions at 01/20/2019 17:30 UTC (01/20/2019 11:30 CST)
26° 57.0000'N   96° 42.0000'W
50nm Southeast of Corpus Christi, TX
Anemometer height: 5m
Water Depth: 252 feet (77 meters)
Wind: 7.0 m/s (13.6 kts)
          From 20°T (NNE)
Wind Gust: 10.00 m/s (19.4 kts) Pressure: 1028.7 mb (30.38 inHg)
Air Temp: 12°C (54 °F) Dewpoint: 8°C (47°F) Relative Humidity: 78%
Sea Surf Temp: 21 °C (69 °F) Wave Height: 1.9m (6.2 ft) Wave Period: 7
  


IMPORTANT: Notice to Mariners


Today's Velocity Data

  Buoy     Date      Time     East   North   Speed  Dir(°T) Wave Ht WvPer  Num
|  ID  |          |  (UTC) | (m/s) | (m/s) | (m/s) |(FROM) |  (m)  | secs| pts |
+======+==========+========+=======+=======+=======+=======+=======+=====+=====+
  42020 01/17/2019 00:10:00   -3.00    0.00    3.00     270     0.0     0     1
  42020 01/17/2019 00:20:00   -2.95    0.52    3.00     280     1.2     6     1
  42020 01/17/2019 00:30:00   -2.95    0.52    3.00     280     0.0     0     1
  42020 01/17/2019 00:40:00   -2.00    0.00    2.00     270     0.0     0     1
  42020 01/17/2019 00:50:00   -2.95   -0.52    3.00     260     0.0     0     1
  42020 01/17/2019 06:00:00   -2.86   -0.90    3.00     253     0.3     1    31
  42020 01/17/2019 06:10:00   -4.00    0.00    4.00     270     0.9     0     1
  42020 01/17/2019 06:20:00   -4.00    0.00    4.00     270     0.9     7     1
  42020 01/17/2019 06:30:00   -2.95   -0.52    3.00     260     0.0     0     1
  42020 01/17/2019 06:40:00   -3.94   -0.69    4.00     260     0.0     0     1
  42020 01/17/2019 06:50:00   -3.76   -1.37    4.00     250     0.0     0     1
  42020 01/17/2019 12:00:00   -3.44    0.38    3.46     276     0.2     1    31
  42020 01/17/2019 12:10:00   -3.83    3.21    5.00     310     0.0     0     1
  42020 01/17/2019 12:20:00   -3.21    3.83    5.00     320     0.8     6     1
  42020 01/17/2019 12:30:00   -2.57    3.06    4.00     320     0.0     0     1
  42020 01/17/2019 12:40:00   -2.57    3.06    4.00     320     0.0     0     1
  42020 01/17/2019 12:50:00   -2.57    3.06    4.00     320     0.0     0     1
  42020 01/17/2019 18:00:00   -2.10    2.65    3.38     322     0.2     1    31
  42020 01/17/2019 18:10:00   -1.03    2.82    3.00     340     0.0     0     1
  42020 01/17/2019 18:20:00   -0.52    2.95    3.00     350     0.7     6     1
  42020 01/17/2019 18:30:00   -1.03    2.82    3.00     340     0.0     0     1
  42020 01/17/2019 18:40:00   -1.37    3.76    4.00     340     0.0     0     1
  42020 01/17/2019 18:50:00   -1.03    2.82    3.00     340     0.0     0     1
  42020 01/18/2019 00:00:00    2.85    2.98    4.13      44     0.2     1    31
  42020 01/18/2019 00:10:00    0.77    0.64    1.00      50     0.5     0     1
  42020 01/18/2019 00:20:00   97.78   15.49   99.00      81     0.5     6     1
  42020 01/18/2019 00:30:00   97.78   15.49   99.00      81     0.0     0     1
  42020 01/18/2019 00:40:00   97.78   15.49   99.00      81     0.0     0     1
  42020 01/18/2019 00:50:00   97.78   15.49   99.00      81     0.0     0     1
  42020 01/18/2019 06:00:00   13.28    3.29   13.69      76     0.1     1    31
  42020 01/18/2019 06:10:00    1.29    1.53    2.00      40     0.0     0     1
  42020 01/18/2019 06:20:00    1.29    1.53    2.00      40     0.5     5     1
  42020 01/18/2019 06:30:00    1.29    1.53    2.00      40     0.0     0     1
  42020 01/18/2019 06:40:00    1.29    1.53    2.00      40     0.0     0     1
  42020 01/18/2019 06:50:00    1.29    1.53    2.00      40     0.0     0     1
  42020 01/18/2019 12:00:00    2.40   -0.47    2.45     101     0.1     1    31
  42020 01/18/2019 12:10:00    3.06   -2.57    4.00     130     0.4     0     1
  42020 01/18/2019 12:20:00    3.21   -3.83    5.00     140     0.4     5     1
  42020 01/18/2019 12:30:00    3.83   -3.21    5.00     130     0.0     0     1
  42020 01/18/2019 12:40:00    3.06   -2.57    4.00     130     0.0     0     1
  42020 01/18/2019 12:50:00    3.06   -2.57    4.00     130     0.0     0     1
  42020 01/18/2019 18:00:00    5.79   -4.64    7.42     129     0.1     0    31
  42020 01/18/2019 18:10:00    1.22   -6.89    7.00     170     0.0     0     1
  42020 01/18/2019 18:20:00    0.00   -6.00    6.00     180     0.7     3     1
  42020 01/18/2019 18:30:00    0.00   -6.00    6.00     180     0.0     0     1
  42020 01/18/2019 18:40:00    0.00   -5.00    5.00     180     0.0     0     1
  42020 01/18/2019 18:50:00    0.00   -6.00    6.00     180     0.0     0     1
  42020 01/19/2019 00:00:00    1.16   -7.77    7.86     172     0.1     1    31
  42020 01/19/2019 00:10:00    1.91  -10.83   11.00     170     0.9     0     1
  42020 01/19/2019 00:20:00    1.74   -9.85   10.00     170     0.9     4     1
  42020 01/19/2019 00:30:00    0.00  -10.00   10.00     180     0.0     0     1
  42020 01/19/2019 00:40:00    0.00  -10.00   10.00     180     0.0     0     1
  42020 01/19/2019 00:50:00    0.00  -10.00   10.00     180     0.0     0     1
  42020 01/19/2019 06:00:00    1.16  -10.77   10.83     174     0.3     1    31
  42020 01/19/2019 06:10:00    0.00  -10.00   10.00     180     1.6     0     1
  42020 01/19/2019 06:20:00   -1.74   -9.85   10.00     190     1.6     6     1
  42020 01/19/2019 06:30:00   -1.74   -9.85   10.00     190     0.0     0     1
  42020 01/19/2019 06:40:00   -1.74   -9.85   10.00     190     0.0     0     1
  42020 01/19/2019 06:50:00   -1.74   -9.85   10.00     190     0.0     0     1
  42020 01/19/2019 12:00:00   -3.38   -7.88    8.57     203     0.5     1    31
  42020 01/19/2019 12:10:00   -6.58    2.39    7.00     290     1.3     0     1
  42020 01/19/2019 12:20:00   -5.91    1.04    6.00     280     1.3     7     1
  42020 01/19/2019 12:30:00   -6.89    1.22    7.00     280     0.0     0     1
  42020 01/19/2019 12:40:00   -8.66    5.00   10.00     300     0.0     0     1
  42020 01/19/2019 12:50:00   -5.79    6.89    9.00     320     0.0     0     1
  42020 01/19/2019 18:00:00   -7.31    9.67   12.12     323     0.3     1    31
  42020 01/19/2019 18:10:00   -9.96    8.36   13.00     310     0.0     0     1
  42020 01/19/2019 18:20:00   -9.00   10.72   14.00     320     2.3     6     1
  42020 01/19/2019 18:30:00   -9.00   10.72   14.00     320     0.0     0     1
  42020 01/19/2019 18:40:00   -8.36    9.96   13.00     320     0.0     0     1
  42020 01/19/2019 18:50:00   -9.96    8.36   13.00     310     0.0     0     1
  42020 01/20/2019 00:00:00   -7.46    9.84   12.35     323     0.7     1    31
  42020 01/20/2019 00:10:00   -7.07    8.43   11.00     320     0.0     0     1
  42020 01/20/2019 00:20:00   -7.71    9.19   12.00     320     2.5     7     1
  42020 01/20/2019 00:30:00   -7.71    9.19   12.00     320     0.0     0     1
  42020 01/20/2019 00:40:00   -7.71    9.19   12.00     320     0.0     0     1
  42020 01/20/2019 00:50:00   -6.50   11.26   13.00     330     0.0     0     1
  42020 01/20/2019 06:00:00   -3.94   11.80   12.44     342     0.5     1    31
  42020 01/20/2019 06:10:00    0.00   14.00   14.00       0     2.5     0     1
  42020 01/20/2019 06:20:00    0.00   12.00   12.00       0     2.5     7     1
  42020 01/20/2019 06:30:00    0.00   14.00   14.00       0     0.0     0     1
  42020 01/20/2019 06:40:00   -2.26   12.80   13.00     350     0.0     0     1
  42020 01/20/2019 06:50:00    0.00   13.00   13.00       0     0.0     0     1
  42020 01/20/2019 12:00:00    1.40   13.35   13.42       6     0.7     1    31
  42020 01/20/2019 12:10:00    0.00   13.00   13.00       0     0.0     0     1
  42020 01/20/2019 12:20:00    0.00   12.00   12.00       0     2.5     8     1
  42020 01/20/2019 12:30:00    0.00   11.00   11.00       0     0.0     0     1
  42020 01/20/2019 12:40:00    0.00   11.00   11.00       0     0.0     0     1
  42020 01/20/2019 12:50:00    0.00   11.00   11.00       0     0.0     0     1